Time;durP1;ratioP1;P1;durP2;ratioP2;P2;SDS_P1;SDS_P2;PMS_P1;PMS_P2;Temp;Humidity;BMP_temperature;BMP_pressure;BME280_temperature;BME280_humidity;BME280_pressure;Samples;Min_cycle;Max_cycle;Signal;HPM_P1;HPM_P2
2023/10/16 20:25:00;;;;;;;3.47;2.13;;;;;;;8.92;71.73;101073.59;4941902;22;1596989;-48
2023/10/16 20:27:49;;;;;;;6.25;3.30;;;;;;;8.90;71.73;101076.69;5040517;28;20469;-47
2023/10/16 20:30:37;;;;;;;9.80;3.50;;;;;;;8.88;71.70;101076.19;5017323;28;20045;-43
2023/10/16 20:33:24;;;;;;;4.90;3.00;;;;;;;8.86;71.64;101081.25;5037213;28;20120;-43
2023/10/16 20:36:11;;;;;;;8.02;3.38;;;;;;;8.85;71.80;101082.38;5028758;28;20419;-45
2023/10/16 20:38:58;;;;;;;11.55;3.45;;;;;;;8.83;71.69;101081.88;5045676;28;20526;-44
2023/10/16 20:41:47;;;;;;;8.05;3.45;;;;;;;8.82;71.69;101080.25;5047857;28;20190;-46
2023/10/16 20:44:35;;;;;;;4.72;3.17;;;;;;;8.81;71.78;101083.34;5050967;28;20044;-44
2023/10/16 20:47:22;;;;;;;5.65;2.85;;;;;;;8.77;71.78;101077.66;5044797;28;20139;-46
2023/10/16 20:50:21;;;;;;;8.20;2.63;;;;;;;8.72;71.85;101083.34;5047027;28;20758;-45
2023/10/16 20:54:06;;;;;;;5.45;1.92;;;;;;;8.70;71.94;101077.34;5051598;22;20122;-40
2023/10/16 20:56:37;;;;;;;4.10;1.95;;;;;;;8.68;71.95;101079.63;5036718;23;20133;-47
2023/10/16 20:59:24;;;;;;;7.70;3.17;;;;;;;8.68;71.91;101079.63;5008731;28;20054;-47
2023/10/16 21:02:11;;;;;;;6.68;2.05;;;;;;;8.63;72.05;101088.03;5002813;28;20053;-51
2023/10/16 21:04:58;;;;;;;6.30;2.03;;;;;;;8.58;72.04;101082.69;5002251;28;20071;-49
2023/10/16 21:07:45;;;;;;;3.92;1.67;;;;;;;8.57;72.26;101072.78;5005677;28;20058;-52
2023/10/16 21:10:32;;;;;;;4.68;1.65;;;;;;;8.55;72.26;101077.84;4998147;28;20046;-47
2023/10/16 21:13:19;;;;;;;8.23;1.63;;;;;;;8.54;72.57;101070.69;5006128;28;20092;-51
2023/10/16 21:16:06;;;;;;;6.65;1.80;;;;;;;8.53;72.41;101071.81;5003317;28;20281;-56
2023/10/16 21:18:53;;;;;;;6.20;1.92;;;;;;;8.52;72.67;101067.44;5004363;28;20840;-48
2023/10/16 21:21:40;;;;;;;5.72;2.55;;;;;;;8.49;72.69;101066.13;4993611;28;20043;-49
2023/10/16 21:24:27;;;;;;;4.70;1.55;;;;;;;8.49;72.87;101070.84;4997741;28;20046;-51
2023/10/16 21:27:15;;;;;;;7.18;2.92;;;;;;;8.48;72.92;101069.19;5002054;28;20388;-49
2023/10/16 21:30:05;;;;;;;7.95;2.80;;;;;;;8.52;73.19;101070.19;5001844;28;20046;-50
2023/10/16 21:32:52;;;;;;;5.97;2.35;;;;;;;8.58;73.41;101061.41;5001248;28;20376;-48
2023/10/16 21:35:40;;;;;;;7.35;2.40;;;;;;;8.67;73.37;101064.19;4986137;28;20054;-51
2023/10/16 21:38:27;;;;;;;4.15;1.92;;;;;;;8.72;73.51;101063.19;4987138;28;20103;-56
2023/10/16 21:41:14;;;;;;;3.13;1.85;;;;;;;8.76;73.66;101065.00;5001531;28;20422;-49
2023/10/16 21:44:00;;;;;;;3.42;1.90;;;;;;;8.78;73.62;101057.22;5001092;28;20058;-52
2023/10/16 21:46:47;;;;;;;6.53;2.15;;;;;;;8.79;73.61;101058.81;5019433;22;20190;-50
2023/10/16 21:49:40;;;;;;;8.52;3.30;;;;;;;8.80;74.00;101070.66;5020438;28;20049;-47
2023/10/16 21:52:30;;;;;;;;;;;;;;;8.80;74.10;101060.44;5017764;28;20731;-45
2023/10/16 21:55:17;;;;;;;6.45;2.30;;;;;;;8.82;74.15;101052.63;5017058;28;20083;-44
2023/10/16 21:58:04;;;;;;;4.13;1.92;;;;;;;8.86;74.53;101042.59;5015614;28;20398;-45
2023/10/16 22:01:09;;;;;;;5.75;2.28;;;;;;;8.93;74.97;101048.41;5018067;28;20045;-44
2023/10/16 22:03:56;;;;;;;7.05;1.48;;;;;;;9.04;75.13;101038.66;5003166;28;20038;-48
2023/10/16 22:06:44;;;;;;;10.43;1.77;;;;;;;9.12;75.28;101054.41;5009103;28;20054;-44
2023/10/16 22:09:34;;;;;;;6.75;1.40;;;;;;;9.19;75.40;101035.38;5013475;28;20050;-45
2023/10/16 22:12:22;;;;;;;3.88;1.58;;;;;;;9.25;75.56;101043.47;5010004;28;20081;-45
2023/10/16 22:15:10;;;;;;;4.43;1.85;;;;;;;9.28;75.78;101037.28;5021311;28;20057;-46
2023/10/16 22:17:58;;;;;;;5.50;1.52;;;;;;;9.32;76.00;101038.28;5016358;28;20139;-46
2023/10/16 22:20:39;;;;;;;6.00;1.90;;;;;;;9.36;76.16;101044.75;5021629;28;20449;-45
2023/10/16 22:23:07;;;;;;;13.20;2.10;;;;;;;9.38;76.23;101042.47;5014059;28;20119;-44
2023/10/16 22:25:36;;;;;;;9.18;1.70;;;;;;;9.40;76.51;101037.44;5018165;28;20139;-44
2023/10/16 22:28:03;;;;;;;7.57;1.85;;;;;;;9.43;76.77;101039.50;5017878;28;20049;-44
2023/10/16 22:30:30;;;;;;;8.05;2.22;;;;;;;9.44;76.83;101030.09;5028830;28;20049;-44
2023/10/16 22:32:57;;;;;;;9.73;1.88;;;;;;;9.45;77.08;101037.25;5030578;28;20395;-46
2023/10/16 22:35:24;;;;;;;11.82;2.38;;;;;;;9.46;77.18;101034.16;5010816;28;20099;-46
2023/10/16 22:37:51;;;;;;;18.33;2.72;;;;;;;9.47;77.29;101041.31;5011168;28;20041;-45
2023/10/16 22:40:19;;;;;;;7.25;1.65;;;;;;;9.47;77.48;101027.50;5036118;28;20055;-46
2023/10/16 22:42:46;;;;;;;7.75;1.95;;;;;;;9.48;77.62;101040.16;5025346;28;20038;-44
2023/10/16 22:45:13;;;;;;;5.63;1.85;;;;;;;9.48;77.72;101039.34;5041021;28;20057;-44
2023/10/16 22:47:40;;;;;;;11.20;1.70;;;;;;;9.49;77.88;101022.44;5028271;28;20053;-45
2023/10/16 22:50:11;;;;;;;6.45;2.10;;;;;;;9.48;77.74;101023.56;5028600;28;20045;-50
2023/10/16 22:52:38;;;;;;;12.68;2.10;;;;;;;9.48;78.04;101026.34;5033180;28;20423;-44
2023/10/16 22:55:06;;;;;;;5.15;1.50;;;;;;;9.49;78.06;101022.44;5026210;28;20133;-50
2023/10/16 22:57:34;;;;;;;5.18;1.50;;;;;;;9.49;78.04;101024.38;5029828;28;20042;-45
2023/10/16 23:00:11;;;;;;;5.03;1.20;;;;;;;9.49;78.22;101022.44;5026473;28;20129;-44
2023/10/16 23:02:39;;;;;;;9.43;1.40;;;;;;;9.49;78.15;101010.56;5022356;28;20584;-49
2023/10/16 23:05:13;;;;;;;9.05;2.03;;;;;;;9.48;78.22;100998.69;5028651;28;20048;-46
2023/10/16 23:07:43;;;;;;;7.97;1.67;;;;;;;9.46;78.63;101005.69;5029992;28;20445;-44
2023/10/16 23:10:13;;;;;;;13.60;1.85;;;;;;;9.46;78.47;101005.69;5023708;28;20057;-45
2023/10/16 23:12:43;;;;;;;6.95;1.70;;;;;;;9.46;78.47;101006.50;5026484;28;20127;-46
2023/10/16 23:15:19;;;;;;;4.07;1.50;;;;;;;9.48;78.62;101008.94;5028881;28;20040;-46
2023/10/16 23:17:50;;;;;;;5.25;1.60;;;;;;;9.50;78.59;101003.91;5030984;28;20077;-45
2023/10/16 23:20:23;;;;;;;10.23;2.63;;;;;;;9.50;78.70;101007.50;5031218;28;20140;-45
2023/10/16 23:22:54;;;;;;;10.38;3.45;;;;;;;9.51;78.71;100999.97;5011495;28;20064;-46
2023/10/16 23:25:22;;;;;;;6.22;1.70;;;;;;;9.52;78.81;101012.66;5024643;28;21154;-44
2023/10/16 23:27:51;;;;;;;10.68;2.38;;;;;;;9.51;78.84;100999.97;5030716;28;20483;-44
2023/10/16 23:30:32;;;;;;;5.05;1.80;;;;;;;9.52;78.90;101004.38;5031000;28;20529;-46
2023/10/16 23:33:01;;;;;;;11.55;1.60;;;;;;;9.50;79.00;100999.19;5002958;28;20379;-45
2023/10/16 23:35:29;;;;;;;10.20;1.33;;;;;;;9.51;79.07;100994.44;5029763;28;20135;-46
2023/10/16 23:37:57;;;;;;;9.80;2.13;;;;;;;9.53;79.03;100992.19;5013368;28;20453;-45
2023/10/16 23:45:39;;;;;;;6.38;1.40;;;;;;;9.61;79.20;100980.28;5030397;28;20487;-45
2023/10/16 23:50:56;;;;;;;7.28;1.75;;;;;;;9.63;79.16;100989.06;5021307;28;20080;-44
2023/10/16 23:53:29;;;;;;;7.13;1.40;;;;;;;9.66;79.44;100988.38;5025314;28;20088;-45
2023/10/16 23:56:01;;;;;;;7.28;1.70;;;;;;;9.66;79.35;100980.88;5030966;28;20766;-45
2023/10/16 23:58:31;;;;;;;12.93;2.10;;;;;;;9.66;79.30;100982.84;5038798;28;20560;-44
